sensor_id;sensor_type;location;lat;lon;timestamp;temperature;humidity
20998;DHT22;10657;51.276;6.390;2023-11-21T00:02:24;9.00;99.90
20998;DHT22;10657;51.276;6.390;2023-11-21T00:04:50;8.90;99.90
20998;DHT22;10657;51.276;6.390;2023-11-21T00:07:18;8.90;99.90
20998;DHT22;10657;51.276;6.390;2023-11-21T00:09:45;8.90;99.90
20998;DHT22;10657;51.276;6.390;2023-11-21T00:12:12;9.00;99.90
20998;DHT22;10657;51.276;6.390;2023-11-21T00:14:40;9.00;99.90
20998;DHT22;10657;51.276;6.390;2023-11-21T00:17:07;8.90;99.90
20998;DHT22;10657;51.276;6.390;2023-11-21T00:19:34;9.00;99.90
20998;DHT22;10657;51.276;6.390;2023-11-21T00:22:01;9.00;99.90
20998;DHT22;10657;51.276;6.390;2023-11-21T00:24:28;9.10;99.90
20998;DHT22;10657;51.276;6.390;2023-11-21T00:26:54;9.10;99.90
20998;DHT22;10657;51.276;6.390;2023-11-21T00:29:21;9.10;99.90
20998;DHT22;10657;51.276;6.390;2023-11-21T00:31:48;9.10;99.90
20998;DHT22;10657;51.276;6.390;2023-11-21T00:34:16;9.10;99.90
20998;DHT22;10657;51.276;6.390;2023-11-21T00:36:43;9.10;99.90
20998;DHT22;10657;51.276;6.390;2023-11-21T00:39:09;9.10;99.90
20998;DHT22;10657;51.276;6.390;2023-11-21T00:41:36;9.10;99.90
20998;DHT22;10657;51.276;6.390;2023-11-21T00:44:03;9.10;99.90
20998;DHT22;10657;51.276;6.390;2023-11-21T00:46:30;9.20;99.90
20998;DHT22;10657;51.276;6.390;2023-11-21T00:48:57;9.10;99.90
20998;DHT22;10657;51.276;6.390;2023-11-21T00:51:24;9.10;99.90
20998;DHT22;10657;51.276;6.390;2023-11-21T00:53:51;9.10;99.90
20998;DHT22;10657;51.276;6.390;2023-11-21T00:56:18;9.10;99.90
20998;DHT22;10657;51.276;6.390;2023-11-21T00:58:45;9.00;99.90
20998;DHT22;10657;51.276;6.390;2023-11-21T01:01:16;9.00;99.90
20998;DHT22;10657;51.276;6.390;2023-11-21T01:03:43;9.00;99.90
20998;DHT22;10657;51.276;6.390;2023-11-21T01:06:10;8.90;99.90
20998;DHT22;10657;51.276;6.390;2023-11-21T01:08:40;9.00;99.90
20998;DHT22;10657;51.276;6.390;2023-11-21T01:11:07;9.00;99.90
20998;DHT22;10657;51.276;6.390;2023-11-21T01:13:34;9.00;99.90
20998;DHT22;10657;51.276;6.390;2023-11-21T01:16:02;8.90;99.90
20998;DHT22;10657;51.276;6.390;2023-11-21T01:18:30;8.90;99.90
20998;DHT22;10657;51.276;6.390;2023-11-21T01:20:57;9.00;99.90
20998;DHT22;10657;51.276;6.390;2023-11-21T01:23:23;9.00;99.90
20998;DHT22;10657;51.276;6.390;2023-11-21T01:25:50;9.00;99.90
20998;DHT22;10657;51.276;6.390;2023-11-21T01:28:18;9.00;99.90
20998;DHT22;10657;51.276;6.390;2023-11-21T01:30:46;9.00;99.90
20998;DHT22;10657;51.276;6.390;2023-11-21T01:33:12;9.00;99.90
20998;DHT22;10657;51.276;6.390;2023-11-21T01:35:42;9.00;99.90
20998;DHT22;10657;51.276;6.390;2023-11-21T01:38:09;9.00;99.90
20998;DHT22;10657;51.276;6.390;2023-11-21T01:40:36;8.90;99.90
20998;DHT22;10657;51.276;6.390;2023-11-21T01:43:02;9.00;99.90
20998;DHT22;10657;51.276;6.390;2023-11-21T01:45:32;8.90;99.90
20998;DHT22;10657;51.276;6.390;2023-11-21T01:48:00;8.90;99.90
20998;DHT22;10657;51.276;6.390;2023-11-21T01:50:29;8.90;99.90
20998;DHT22;10657;51.276;6.390;2023-11-21T01:52:56;8.90;99.90
20998;DHT22;10657;51.276;6.390;2023-11-21T01:55:23;8.80;99.90
20998;DHT22;10657;51.276;6.390;2023-11-21T01:57:55;8.80;99.90
20998;DHT22;10657;51.276;6.390;2023-11-21T02:00:22;8.80;99.90
20998;DHT22;10657;51.276;6.390;2023-11-21T02:02:50;8.80;99.90
20998;DHT22;10657;51.276;6.390;2023-11-21T02:05:18;8.90;99.90
20998;DHT22;10657;51.276;6.390;2023-11-21T02:07:45;8.90;99.90
20998;DHT22;10657;51.276;6.390;2023-11-21T02:10:15;8.90;99.90
20998;DHT22;10657;51.276;6.390;2023-11-21T02:12:42;8.90;99.90
20998;DHT22;10657;51.276;6.390;2023-11-21T02:15:10;9.00;99.90
20998;DHT22;10657;51.276;6.390;2023-11-21T02:17:42;9.00;99.90
20998;DHT22;10657;51.276;6.390;2023-11-21T02:20:13;9.00;99.90
20998;DHT22;10657;51.276;6.390;2023-11-21T02:22:54;9.00;99.90
20998;DHT22;10657;51.276;6.390;2023-11-21T02:25:30;9.00;99.90
20998;DHT22;10657;51.276;6.390;2023-11-21T02:27:58;9.00;99.90
20998;DHT22;10657;51.276;6.390;2023-11-21T02:30:25;9.00;99.90
20998;DHT22;10657;51.276;6.390;2023-11-21T02:32:52;9.00;99.90
20998;DHT22;10657;51.276;6.390;2023-11-21T02:35:20;8.90;99.90
20998;DHT22;10657;51.276;6.390;2023-11-21T02:37:53;8.90;99.90
20998;DHT22;10657;51.276;6.390;2023-11-21T02:40:19;8.90;99.90
20998;DHT22;10657;51.276;6.390;2023-11-21T02:42:51;8.90;99.90
20998;DHT22;10657;51.276;6.390;2023-11-21T02:45:20;9.00;99.90
20998;DHT22;10657;51.276;6.390;2023-11-21T02:47:51;9.00;99.90
20998;DHT22;10657;51.276;6.390;2023-11-21T02:50:19;9.00;99.90
20998;DHT22;10657;51.276;6.390;2023-11-21T02:52:46;9.00;99.90
20998;DHT22;10657;51.276;6.390;2023-11-21T02:55:13;9.00;99.90
20998;DHT22;10657;51.276;6.390;2023-11-21T02:57:40;8.90;99.90
20998;DHT22;10657;51.276;6.390;2023-11-21T03:00:07;8.90;99.90
20998;DHT22;10657;51.276;6.390;2023-11-21T03:02:36;8.90;99.90
20998;DHT22;10657;51.276;6.390;2023-11-21T03:05:06;8.90;99.90
20998;DHT22;10657;51.276;6.390;2023-11-21T03:07:33;8.90;99.90
20998;DHT22;10657;51.276;6.390;2023-11-21T03:09:59;8.90;99.90
20998;DHT22;10657;51.276;6.390;2023-11-21T03:12:26;8.80;99.90
20998;DHT22;10657;51.276;6.390;2023-11-21T03:14:53;8.80;99.90
20998;DHT22;10657;51.276;6.390;2023-11-21T03:17:20;8.80;99.90
20998;DHT22;10657;51.276;6.390;2023-11-21T03:19:47;8.80;99.90
20998;DHT22;10657;51.276;6.390;2023-11-21T03:22:14;8.80;99.90
20998;DHT22;10657;51.276;6.390;2023-11-21T03:24:40;8.90;99.90
20998;DHT22;10657;51.276;6.390;2023-11-21T03:27:07;8.80;99.90
20998;DHT22;10657;51.276;6.390;2023-11-21T03:29:34;8.80;99.90
20998;DHT22;10657;51.276;6.390;2023-11-21T03:32:01;8.90;99.90
20998;DHT22;10657;51.276;6.390;2023-11-21T03:34:28;8.90;99.90
20998;DHT22;10657;51.276;6.390;2023-11-21T03:36:55;8.90;99.90
20998;DHT22;10657;51.276;6.390;2023-11-21T03:39:22;8.90;99.90
20998;DHT22;10657;51.276;6.390;2023-11-21T03:41:49;8.80;99.90
20998;DHT22;10657;51.276;6.390;2023-11-21T03:44:16;8.80;99.90
20998;DHT22;10657;51.276;6.390;2023-11-21T03:46:44;8.80;99.90
20998;DHT22;10657;51.276;6.390;2023-11-21T03:49:10;8.80;99.90
20998;DHT22;10657;51.276;6.390;2023-11-21T03:51:37;8.80;99.90
20998;DHT22;10657;51.276;6.390;2023-11-21T03:54:04;8.80;99.90
20998;DHT22;10657;51.276;6.390;2023-11-21T03:56:31;8.80;99.90
20998;DHT22;10657;51.276;6.390;2023-11-21T03:58:57;8.80;99.90
20998;DHT22;10657;51.276;6.390;2023-11-21T04:01:24;8.90;99.90
20998;DHT22;10657;51.276;6.390;2023-11-21T04:03:51;8.90;99.90
20998;DHT22;10657;51.276;6.390;2023-11-21T04:06:18;8.80;99.90
20998;DHT22;10657;51.276;6.390;2023-11-21T04:08:45;8.80;99.90
20998;DHT22;10657;51.276;6.390;2023-11-21T04:11:12;8.80;99.90
20998;DHT22;10657;51.276;6.390;2023-11-21T04:13:40;8.80;99.90
20998;DHT22;10657;51.276;6.390;2023-11-21T04:16:07;8.80;99.90
20998;DHT22;10657;51.276;6.390;2023-11-21T04:18:36;8.80;99.90
20998;DHT22;10657;51.276;6.390;2023-11-21T04:21:07;8.80;99.90
20998;DHT22;10657;51.276;6.390;2023-11-21T04:23:34;8.80;99.90
20998;DHT22;10657;51.276;6.390;2023-11-21T04:26:01;8.70;99.90
20998;DHT22;10657;51.276;6.390;2023-11-21T04:28:29;8.70;99.90
20998;DHT22;10657;51.276;6.390;2023-11-21T04:30:56;8.70;99.90
20998;DHT22;10657;51.276;6.390;2023-11-21T04:33:23;8.70;99.90
20998;DHT22;10657;51.276;6.390;2023-11-21T04:35:49;8.70;99.90
20998;DHT22;10657;51.276;6.390;2023-11-21T04:38:16;8.70;99.90
20998;DHT22;10657;51.276;6.390;2023-11-21T04:40:43;8.80;99.90
20998;DHT22;10657;51.276;6.390;2023-11-21T04:43:09;8.80;99.90
20998;DHT22;10657;51.276;6.390;2023-11-21T04:45:36;8.80;99.90
20998;DHT22;10657;51.276;6.390;2023-11-21T04:48:03;8.80;99.90
20998;DHT22;10657;51.276;6.390;2023-11-21T04:50:30;8.80;99.90
20998;DHT22;10657;51.276;6.390;2023-11-21T04:52:57;8.70;99.90
20998;DHT22;10657;51.276;6.390;2023-11-21T04:55:23;8.70;99.90
20998;DHT22;10657;51.276;6.390;2023-11-21T04:57:50;8.70;99.90
20998;DHT22;10657;51.276;6.390;2023-11-21T05:00:17;8.70;99.90
20998;DHT22;10657;51.276;6.390;2023-11-21T05:02:44;8.60;99.90
20998;DHT22;10657;51.276;6.390;2023-11-21T05:05:11;8.60;99.90
20998;DHT22;10657;51.276;6.390;2023-11-21T05:07:39;8.60;99.90
20998;DHT22;10657;51.276;6.390;2023-11-21T05:10:07;8.60;99.90
20998;DHT22;10657;51.276;6.390;2023-11-21T05:12:37;8.70;99.90
20998;DHT22;10657;51.276;6.390;2023-11-21T05:15:04;8.70;99.90
20998;DHT22;10657;51.276;6.390;2023-11-21T05:17:38;8.70;99.90
20998;DHT22;10657;51.276;6.390;2023-11-21T05:20:14;8.70;99.90
20998;DHT22;10657;51.276;6.390;2023-11-21T05:22:45;8.70;99.90
20998;DHT22;10657;51.276;6.390;2023-11-21T05:25:11;8.70;99.90
20998;DHT22;10657;51.276;6.390;2023-11-21T05:27:38;8.60;99.90
20998;DHT22;10657;51.276;6.390;2023-11-21T05:30:06;8.70;99.90
20998;DHT22;10657;51.276;6.390;2023-11-21T05:32:33;8.60;99.90
20998;DHT22;10657;51.276;6.390;2023-11-21T05:35:00;8.60;99.90
20998;DHT22;10657;51.276;6.390;2023-11-21T05:37:27;8.50;99.90
20998;DHT22;10657;51.276;6.390;2023-11-21T05:39:54;8.40;99.90
20998;DHT22;10657;51.276;6.390;2023-11-21T05:42:23;8.40;99.90
20998;DHT22;10657;51.276;6.390;2023-11-21T05:44:50;8.40;99.90
20998;DHT22;10657;51.276;6.390;2023-11-21T05:47:17;8.50;99.90
20998;DHT22;10657;51.276;6.390;2023-11-21T05:49:44;8.40;99.90
20998;DHT22;10657;51.276;6.390;2023-11-21T05:52:12;8.40;99.90
20998;DHT22;10657;51.276;6.390;2023-11-21T05:54:39;8.50;99.90
20998;DHT22;10657;51.276;6.390;2023-11-21T05:57:05;8.50;99.90
20998;DHT22;10657;51.276;6.390;2023-11-21T05:59:32;8.50;99.90
20998;DHT22;10657;51.276;6.390;2023-11-21T06:01:59;8.50;99.90
20998;DHT22;10657;51.276;6.390;2023-11-21T06:04:25;8.50;99.90
20998;DHT22;10657;51.276;6.390;2023-11-21T06:06:52;8.50;99.90
20998;DHT22;10657;51.276;6.390;2023-11-21T06:09:19;8.40;99.90
20998;DHT22;10657;51.276;6.390;2023-11-21T06:11:47;8.50;99.90
20998;DHT22;10657;51.276;6.390;2023-11-21T06:14:13;8.60;99.90
20998;DHT22;10657;51.276;6.390;2023-11-21T06:16:44;8.60;99.90
20998;DHT22;10657;51.276;6.390;2023-11-21T06:19:12;8.60;99.90
20998;DHT22;10657;51.276;6.390;2023-11-21T06:21:39;8.50;99.90
20998;DHT22;10657;51.276;6.390;2023-11-21T06:24:05;8.50;99.90
20998;DHT22;10657;51.276;6.390;2023-11-21T06:26:33;8.50;99.90
20998;DHT22;10657;51.276;6.390;2023-11-21T06:29:01;8.60;99.90
20998;DHT22;10657;51.276;6.390;2023-11-21T06:31:29;8.50;99.90
20998;DHT22;10657;51.276;6.390;2023-11-21T06:33:56;8.50;99.90
20998;DHT22;10657;51.276;6.390;2023-11-21T06:36:24;8.50;99.90
20998;DHT22;10657;51.276;6.390;2023-11-21T06:38:51;8.40;99.90
20998;DHT22;10657;51.276;6.390;2023-11-21T06:41:17;8.40;99.90
20998;DHT22;10657;51.276;6.390;2023-11-21T06:43:44;8.40;99.90
20998;DHT22;10657;51.276;6.390;2023-11-21T06:46:13;8.50;99.90
20998;DHT22;10657;51.276;6.390;2023-11-21T06:48:43;8.40;99.90
20998;DHT22;10657;51.276;6.390;2023-11-21T06:51:10;8.40;99.90
20998;DHT22;10657;51.276;6.390;2023-11-21T06:53:37;8.30;99.90
20998;DHT22;10657;51.276;6.390;2023-11-21T06:56:14;8.40;99.90
20998;DHT22;10657;51.276;6.390;2023-11-21T06:58:41;8.30;99.90
20998;DHT22;10657;51.276;6.390;2023-11-21T07:01:08;8.40;99.90
20998;DHT22;10657;51.276;6.390;2023-11-21T07:03:35;8.40;99.90
20998;DHT22;10657;51.276;6.390;2023-11-21T07:06:04;8.40;99.90
20998;DHT22;10657;51.276;6.390;2023-11-21T07:08:31;8.30;99.90
20998;DHT22;10657;51.276;6.390;2023-11-21T07:10:58;8.40;99.90
20998;DHT22;10657;51.276;6.390;2023-11-21T07:13:24;8.50;99.90
20998;DHT22;10657;51.276;6.390;2023-11-21T07:15:52;8.40;99.90
20998;DHT22;10657;51.276;6.390;2023-11-21T07:18:19;8.50;99.90
20998;DHT22;10657;51.276;6.390;2023-11-21T07:20:46;8.30;99.90
20998;DHT22;10657;51.276;6.390;2023-11-21T07:23:12;8.30;99.90
20998;DHT22;10657;51.276;6.390;2023-11-21T07:25:39;8.40;99.90
20998;DHT22;10657;51.276;6.390;2023-11-21T07:28:08;8.40;99.90
20998;DHT22;10657;51.276;6.390;2023-11-21T07:30:35;8.50;99.90
20998;DHT22;10657;51.276;6.390;2023-11-21T07:33:01;8.50;99.90
20998;DHT22;10657;51.276;6.390;2023-11-21T07:35:28;8.50;99.90
20998;DHT22;10657;51.276;6.390;2023-11-21T07:37:55;8.40;99.90
20998;DHT22;10657;51.276;6.390;2023-11-21T07:40:21;8.40;99.90
20998;DHT22;10657;51.276;6.390;2023-11-21T07:42:49;8.40;99.90
20998;DHT22;10657;51.276;6.390;2023-11-21T07:45:16;8.50;99.90
20998;DHT22;10657;51.276;6.390;2023-11-21T07:47:43;8.50;99.90
20998;DHT22;10657;51.276;6.390;2023-11-21T07:50:10;8.40;99.90
20998;DHT22;10657;51.276;6.390;2023-11-21T07:52:37;8.40;99.90
20998;DHT22;10657;51.276;6.390;2023-11-21T07:55:04;8.40;99.90
20998;DHT22;10657;51.276;6.390;2023-11-21T07:57:31;8.40;99.90
20998;DHT22;10657;51.276;6.390;2023-11-21T07:59:58;8.50;99.90
20998;DHT22;10657;51.276;6.390;2023-11-21T08:02:24;8.50;99.90
20998;DHT22;10657;51.276;6.390;2023-11-21T08:04:52;8.50;99.90
20998;DHT22;10657;51.276;6.390;2023-11-21T08:07:19;8.50;99.90
20998;DHT22;10657;51.276;6.390;2023-11-21T08:09:46;8.50;99.90
20998;DHT22;10657;51.276;6.390;2023-11-21T08:12:14;8.50;99.90
20998;DHT22;10657;51.276;6.390;2023-11-21T08:14:41;8.60;99.90
20998;DHT22;10657;51.276;6.390;2023-11-21T08:17:09;8.60;99.90
20998;DHT22;10657;51.276;6.390;2023-11-21T08:19:36;8.60;99.90
20998;DHT22;10657;51.276;6.390;2023-11-21T08:22:04;8.60;99.90
20998;DHT22;10657;51.276;6.390;2023-11-21T08:24:30;8.60;99.90
20998;DHT22;10657;51.276;6.390;2023-11-21T08:26:57;8.60;99.90
20998;DHT22;10657;51.276;6.390;2023-11-21T08:29:25;8.60;99.90
20998;DHT22;10657;51.276;6.390;2023-11-21T08:31:51;8.50;99.90
20998;DHT22;10657;51.276;6.390;2023-11-21T08:34:18;8.40;99.90
20998;DHT22;10657;51.276;6.390;2023-11-21T08:36:45;8.60;99.90
20998;DHT22;10657;51.276;6.390;2023-11-21T08:39:12;8.60;99.90
20998;DHT22;10657;51.276;6.390;2023-11-21T08:41:39;8.70;99.90
20998;DHT22;10657;51.276;6.390;2023-11-21T08:44:06;8.60;99.90
20998;DHT22;10657;51.276;6.390;2023-11-21T08:46:33;8.70;99.90
20998;DHT22;10657;51.276;6.390;2023-11-21T08:49:03;8.80;99.90
20998;DHT22;10657;51.276;6.390;2023-11-21T08:51:30;8.60;99.90
20998;DHT22;10657;51.276;6.390;2023-11-21T08:53:58;8.70;99.90
20998;DHT22;10657;51.276;6.390;2023-11-21T08:56:27;8.80;99.90
20998;DHT22;10657;51.276;6.390;2023-11-21T08:58:53;8.80;99.90
20998;DHT22;10657;51.276;6.390;2023-11-21T09:01:20;8.80;99.90
20998;DHT22;10657;51.276;6.390;2023-11-21T09:03:47;8.90;99.90
20998;DHT22;10657;51.276;6.390;2023-11-21T09:06:16;8.90;99.90
20998;DHT22;10657;51.276;6.390;2023-11-21T09:08:45;9.00;99.90
20998;DHT22;10657;51.276;6.390;2023-11-21T09:11:11;9.00;99.90
20998;DHT22;10657;51.276;6.390;2023-11-21T09:13:38;9.10;99.90
20998;DHT22;10657;51.276;6.390;2023-11-21T09:16:05;9.10;99.90
20998;DHT22;10657;51.276;6.390;2023-11-21T09:18:32;9.10;99.90
20998;DHT22;10657;51.276;6.390;2023-11-21T09:20:59;9.10;99.90
20998;DHT22;10657;51.276;6.390;2023-11-21T09:23:25;9.20;99.90
20998;DHT22;10657;51.276;6.390;2023-11-21T09:25:52;9.20;99.90
20998;DHT22;10657;51.276;6.390;2023-11-21T09:28:23;9.20;99.90
20998;DHT22;10657;51.276;6.390;2023-11-21T09:30:49;9.20;99.90
20998;DHT22;10657;51.276;6.390;2023-11-21T09:33:17;9.30;99.90
20998;DHT22;10657;51.276;6.390;2023-11-21T09:35:43;9.30;99.90
20998;DHT22;10657;51.276;6.390;2023-11-21T09:38:10;9.30;99.90
20998;DHT22;10657;51.276;6.390;2023-11-21T09:40:38;9.30;99.90
20998;DHT22;10657;51.276;6.390;2023-11-21T09:43:17;9.20;99.90
20998;DHT22;10657;51.276;6.390;2023-11-21T09:45:54;9.20;99.90
20998;DHT22;10657;51.276;6.390;2023-11-21T09:48:24;9.20;99.90
20998;DHT22;10657;51.276;6.390;2023-11-21T09:50:53;9.30;99.90
20998;DHT22;10657;51.276;6.390;2023-11-21T09:53:21;9.20;99.90
20998;DHT22;10657;51.276;6.390;2023-11-21T09:55:52;9.20;99.90
20998;DHT22;10657;51.276;6.390;2023-11-21T09:58:20;9.30;99.90
20998;DHT22;10657;51.276;6.390;2023-11-21T10:00:49;9.40;99.90
20998;DHT22;10657;51.276;6.390;2023-11-21T10:03:18;9.40;99.90
20998;DHT22;10657;51.276;6.390;2023-11-21T10:05:45;9.50;99.90
20998;DHT22;10657;51.276;6.390;2023-11-21T10:08:14;9.40;99.90
20998;DHT22;10657;51.276;6.390;2023-11-21T10:10:45;9.40;99.90
20998;DHT22;10657;51.276;6.390;2023-11-21T10:13:13;9.50;99.90
20998;DHT22;10657;51.276;6.390;2023-11-21T10:15:43;9.60;99.90
20998;DHT22;10657;51.276;6.390;2023-11-21T10:18:16;9.60;99.90
20998;DHT22;10657;51.276;6.390;2023-11-21T10:20:43;9.60;99.90
20998;DHT22;10657;51.276;6.390;2023-11-21T10:23:10;9.70;99.90
20998;DHT22;10657;51.276;6.390;2023-11-21T10:25:38;9.70;99.90
20998;DHT22;10657;51.276;6.390;2023-11-21T10:28:05;9.60;99.90
20998;DHT22;10657;51.276;6.390;2023-11-21T10:30:34;9.50;99.90
20998;DHT22;10657;51.276;6.390;2023-11-21T10:33:04;9.60;99.90
20998;DHT22;10657;51.276;6.390;2023-11-21T10:35:48;9.60;99.90
20998;DHT22;10657;51.276;6.390;2023-11-21T10:38:18;9.60;99.90
20998;DHT22;10657;51.276;6.390;2023-11-21T10:40:47;9.80;99.90
20998;DHT22;10657;51.276;6.390;2023-11-21T10:43:15;9.80;99.90
20998;DHT22;10657;51.276;6.390;2023-11-21T10:45:43;9.80;99.90
20998;DHT22;10657;51.276;6.390;2023-11-21T10:48:12;9.70;99.90
20998;DHT22;10657;51.276;6.390;2023-11-21T10:50:43;9.80;99.90
20998;DHT22;10657;51.276;6.390;2023-11-21T10:53:10;9.90;99.90
20998;DHT22;10657;51.276;6.390;2023-11-21T10:55:39;9.90;99.90
20998;DHT22;10657;51.276;6.390;2023-11-21T10:58:06;9.90;99.90
20998;DHT22;10657;51.276;6.390;2023-11-21T11:00:33;9.90;99.90
20998;DHT22;10657;51.276;6.390;2023-11-21T11:03:00;10.00;99.90
20998;DHT22;10657;51.276;6.390;2023-11-21T11:05:30;10.00;99.90
20998;DHT22;10657;51.276;6.390;2023-11-21T11:08:02;10.00;99.90
20998;DHT22;10657;51.276;6.390;2023-11-21T11:10:31;10.00;99.90
20998;DHT22;10657;51.276;6.390;2023-11-21T11:12:59;10.00;99.90
20998;DHT22;10657;51.276;6.390;2023-11-21T11:15:27;10.00;99.90
20998;DHT22;10657;51.276;6.390;2023-11-21T11:17:54;10.00;99.90
20998;DHT22;10657;51.276;6.390;2023-11-21T11:20:29;10.10;99.90
20998;DHT22;10657;51.276;6.390;2023-11-21T11:32:21;10.20;99.90
20998;DHT22;10657;51.276;6.390;2023-11-21T11:35:04;10.20;99.90
20998;DHT22;10657;51.276;6.390;2023-11-21T11:37:33;10.40;99.90
20998;DHT22;10657;51.276;6.390;2023-11-21T11:40:00;10.40;99.90
20998;DHT22;10657;51.276;6.390;2023-11-21T11:42:27;10.40;99.90
20998;DHT22;10657;51.276;6.390;2023-11-21T11:44:53;10.40;99.90
20998;DHT22;10657;51.276;6.390;2023-11-21T11:50:10;10.40;99.90
20998;DHT22;10657;51.276;6.390;2023-11-21T11:52:44;10.50;99.90
20998;DHT22;10657;51.276;6.390;2023-11-21T11:55:13;10.50;99.90
20998;DHT22;10657;51.276;6.390;2023-11-21T11:57:42;10.50;99.90
20998;DHT22;10657;51.276;6.390;2023-11-21T12:00:09;10.50;99.90
20998;DHT22;10657;51.276;6.390;2023-11-21T12:02:51;10.50;99.90
20998;DHT22;10657;51.276;6.390;2023-11-21T12:05:22;10.60;99.90
20998;DHT22;10657;51.276;6.390;2023-11-21T12:07:54;10.60;99.90
20998;DHT22;10657;51.276;6.390;2023-11-21T12:10:24;10.50;99.90
20998;DHT22;10657;51.276;6.390;2023-11-21T12:13:02;10.70;99.90
20998;DHT22;10657;51.276;6.390;2023-11-21T12:15:30;10.60;99.90
20998;DHT22;10657;51.276;6.390;2023-11-21T12:17:58;10.60;99.90
20998;DHT22;10657;51.276;6.390;2023-11-21T12:20:28;10.60;99.90
20998;DHT22;10657;51.276;6.390;2023-11-21T12:22:59;10.60;99.90
20998;DHT22;10657;51.276;6.390;2023-11-21T12:25:28;10.50;99.90
20998;DHT22;10657;51.276;6.390;2023-11-21T12:27:56;10.50;99.90
20998;DHT22;10657;51.276;6.390;2023-11-21T12:30:28;10.50;99.90
20998;DHT22;10657;51.276;6.390;2023-11-21T12:32:58;10.50;99.90
20998;DHT22;10657;51.276;6.390;2023-11-21T12:35:30;10.50;99.90
20998;DHT22;10657;51.276;6.390;2023-11-21T12:37:57;10.50;99.90
20998;DHT22;10657;51.276;6.390;2023-11-21T12:40:24;10.50;99.90
20998;DHT22;10657;51.276;6.390;2023-11-21T12:42:53;10.60;99.90
20998;DHT22;10657;51.276;6.390;2023-11-21T12:45:22;10.60;99.90
20998;DHT22;10657;51.276;6.390;2023-11-21T12:47:58;10.50;99.90
20998;DHT22;10657;51.276;6.390;2023-11-21T12:50:28;10.50;99.90
20998;DHT22;10657;51.276;6.390;2023-11-21T12:53:00;10.50;99.90
20998;DHT22;10657;51.276;6.390;2023-11-21T12:55:30;10.50;99.90
20998;DHT22;10657;51.276;6.390;2023-11-21T12:57:57;10.50;99.90
20998;DHT22;10657;51.276;6.390;2023-11-21T13:00:38;10.60;99.90
20998;DHT22;10657;51.276;6.390;2023-11-21T13:03:09;10.60;99.90
20998;DHT22;10657;51.276;6.390;2023-11-21T13:05:38;10.50;99.90
20998;DHT22;10657;51.276;6.390;2023-11-21T13:08:25;10.50;99.90
20998;DHT22;10657;51.276;6.390;2023-11-21T13:10:54;10.50;99.90
20998;DHT22;10657;51.276;6.390;2023-11-21T13:13:24;10.50;99.90
20998;DHT22;10657;51.276;6.390;2023-11-21T13:15:55;10.50;99.90
20998;DHT22;10657;51.276;6.390;2023-11-21T13:18:28;10.50;99.90
20998;DHT22;10657;51.276;6.390;2023-11-21T13:20:57;10.50;99.90
20998;DHT22;10657;51.276;6.390;2023-11-21T13:23:26;10.50;99.90
20998;DHT22;10657;51.276;6.390;2023-11-21T13:25:54;10.60;99.90
20998;DHT22;10657;51.276;6.390;2023-11-21T13:28:31;10.60;99.90
20998;DHT22;10657;51.276;6.390;2023-11-21T13:31:00;10.60;99.90
20998;DHT22;10657;51.276;6.390;2023-11-21T13:33:38;10.60;99.90
20998;DHT22;10657;51.276;6.390;2023-11-21T13:36:06;10.50;99.90
20998;DHT22;10657;51.276;6.390;2023-11-21T13:38:35;10.50;99.90
20998;DHT22;10657;51.276;6.390;2023-11-21T13:41:04;10.50;99.90
20998;DHT22;10657;51.276;6.390;2023-11-21T13:43:34;10.50;99.90
20998;DHT22;10657;51.276;6.390;2023-11-21T13:46:00;10.50;99.90
20998;DHT22;10657;51.276;6.390;2023-11-21T13:48:39;10.50;99.90
20998;DHT22;10657;51.276;6.390;2023-11-21T13:51:09;10.50;99.90
20998;DHT22;10657;51.276;6.390;2023-11-21T13:53:48;10.50;99.90
20998;DHT22;10657;51.276;6.390;2023-11-21T13:56:17;10.50;99.90
20998;DHT22;10657;51.276;6.390;2023-11-21T13:58:52;10.40;99.90
20998;DHT22;10657;51.276;6.390;2023-11-21T14:01:27;10.50;99.90
20998;DHT22;10657;51.276;6.390;2023-11-21T14:04:01;10.50;99.90
20998;DHT22;10657;51.276;6.390;2023-11-21T14:06:49;10.50;99.90
20998;DHT22;10657;51.276;6.390;2023-11-21T14:09:20;10.50;99.90
20998;DHT22;10657;51.276;6.390;2023-11-21T14:11:56;10.50;99.90
20998;DHT22;10657;51.276;6.390;2023-11-21T14:14:25;10.60;99.90
20998;DHT22;10657;51.276;6.390;2023-11-21T14:16:52;10.60;99.90
20998;DHT22;10657;51.276;6.390;2023-11-21T14:19:19;10.60;99.90
20998;DHT22;10657;51.276;6.390;2023-11-21T14:21:47;10.60;99.90
20998;DHT22;10657;51.276;6.390;2023-11-21T14:24:17;10.60;99.90
20998;DHT22;10657;51.276;6.390;2023-11-21T14:26:46;10.50;99.90
20998;DHT22;10657;51.276;6.390;2023-11-21T14:29:14;10.50;99.90
20998;DHT22;10657;51.276;6.390;2023-11-21T14:31:43;10.50;99.90
20998;DHT22;10657;51.276;6.390;2023-11-21T14:34:10;10.40;99.90
20998;DHT22;10657;51.276;6.390;2023-11-21T14:36:38;10.50;99.90
20998;DHT22;10657;51.276;6.390;2023-11-21T14:39:06;10.50;99.90
20998;DHT22;10657;51.276;6.390;2023-11-21T14:41:35;10.40;99.90
20998;DHT22;10657;51.276;6.390;2023-11-21T14:44:04;10.40;99.90
20998;DHT22;10657;51.276;6.390;2023-11-21T14:46:33;10.40;99.90
20998;DHT22;10657;51.276;6.390;2023-11-21T14:49:03;10.40;99.90
20998;DHT22;10657;51.276;6.390;2023-11-21T14:51:47;10.40;99.90
20998;DHT22;10657;51.276;6.390;2023-11-21T14:54:30;10.40;99.90
20998;DHT22;10657;51.276;6.390;2023-11-21T14:57:13;10.40;99.90
20998;DHT22;10657;51.276;6.390;2023-11-21T14:59:49;10.40;99.90
20998;DHT22;10657;51.276;6.390;2023-11-21T15:02:23;10.40;99.90
20998;DHT22;10657;51.276;6.390;2023-11-21T15:05:11;10.30;99.90
20998;DHT22;10657;51.276;6.390;2023-11-21T15:07:42;10.30;99.90
20998;DHT22;10657;51.276;6.390;2023-11-21T15:10:11;10.30;99.90
20998;DHT22;10657;51.276;6.390;2023-11-21T15:12:42;10.30;99.90
20998;DHT22;10657;51.276;6.390;2023-11-21T15:15:10;10.30;99.90
20998;DHT22;10657;51.276;6.390;2023-11-21T15:17:37;10.30;99.90
20998;DHT22;10657;51.276;6.390;2023-11-21T15:20:06;10.30;99.90
20998;DHT22;10657;51.276;6.390;2023-11-21T15:22:35;10.30;99.90
20998;DHT22;10657;51.276;6.390;2023-11-21T15:25:02;10.40;99.90
20998;DHT22;10657;51.276;6.390;2023-11-21T15:27:34;10.30;99.90
20998;DHT22;10657;51.276;6.390;2023-11-21T15:30:01;10.30;99.90
20998;DHT22;10657;51.276;6.390;2023-11-21T15:32:29;10.30;99.90
20998;DHT22;10657;51.276;6.390;2023-11-21T15:34:56;10.30;99.90
20998;DHT22;10657;51.276;6.390;2023-11-21T15:37:22;10.30;99.90
20998;DHT22;10657;51.276;6.390;2023-11-21T15:39:50;10.30;99.90
20998;DHT22;10657;51.276;6.390;2023-11-21T15:42:16;10.40;99.90
20998;DHT22;10657;51.276;6.390;2023-11-21T15:44:43;10.30;99.90
20998;DHT22;10657;51.276;6.390;2023-11-21T15:47:10;10.30;99.90
20998;DHT22;10657;51.276;6.390;2023-11-21T15:49:37;10.20;99.90
20998;DHT22;10657;51.276;6.390;2023-11-21T15:52:05;10.20;99.90
20998;DHT22;10657;51.276;6.390;2023-11-21T15:54:33;10.20;99.90
20998;DHT22;10657;51.276;6.390;2023-11-21T15:57:01;10.20;99.90
20998;DHT22;10657;51.276;6.390;2023-11-21T15:59:30;10.20;99.90
20998;DHT22;10657;51.276;6.390;2023-11-21T16:01:58;10.20;99.90
20998;DHT22;10657;51.276;6.390;2023-11-21T16:04:25;10.20;99.90